sensor_id;sensor_type;location;lat;lon;timestamp;P1;durP1;ratioP1;P2;durP2;ratioP2
22907;SDS011;11620;50.050;8.690;2022-08-19T00:00:27;16.95;;;13.80;;
22907;SDS011;11620;50.050;8.690;2022-08-19T00:03:14;14.23;;;12.23;;
22907;SDS011;11620;50.050;8.690;2022-08-19T00:06:00;19.55;;;12.88;;
22907;SDS011;11620;50.050;8.690;2022-08-19T00:08:47;15.90;;;13.23;;
22907;SDS011;11620;50.050;8.690;2022-08-19T00:11:33;14.45;;;12.48;;
22907;SDS011;11620;50.050;8.690;2022-08-19T00:14:21;16.75;;;13.23;;
22907;SDS011;11620;50.050;8.690;2022-08-19T00:17:09;16.58;;;13.57;;
22907;SDS011;11620;50.050;8.690;2022-08-19T00:19:56;15.85;;;13.27;;
22907;SDS011;11620;50.050;8.690;2022-08-19T00:22:43;16.67;;;12.27;;
22907;SDS011;11620;50.050;8.690;2022-08-19T00:25:30;14.20;;;12.70;;
22907;SDS011;11620;50.050;8.690;2022-08-19T00:28:16;14.88;;;13.10;;
22907;SDS011;11620;50.050;8.690;2022-08-19T00:31:04;16.98;;;12.65;;
22907;SDS011;11620;50.050;8.690;2022-08-19T00:33:52;15.90;;;13.82;;
22907;SDS011;11620;50.050;8.690;2022-08-19T00:36:38;16.15;;;13.23;;
22907;SDS011;11620;50.050;8.690;2022-08-19T00:39:26;14.98;;;12.60;;
22907;SDS011;11620;50.050;8.690;2022-08-19T00:42:12;17.05;;;13.57;;
22907;SDS011;11620;50.050;8.690;2022-08-19T00:44:59;13.98;;;12.48;;
22907;SDS011;11620;50.050;8.690;2022-08-19T00:47:46;14.85;;;12.85;;
22907;SDS011;11620;50.050;8.690;2022-08-19T00:50:32;16.50;;;13.05;;
22907;SDS011;11620;50.050;8.690;2022-08-19T00:53:20;15.45;;;13.07;;
22907;SDS011;11620;50.050;8.690;2022-08-19T00:56:09;17.50;;;12.82;;
22907;SDS011;11620;50.050;8.690;2022-08-19T00:58:56;15.70;;;13.23;;
22907;SDS011;11620;50.050;8.690;2022-08-19T01:01:45;16.05;;;13.27;;
22907;SDS011;11620;50.050;8.690;2022-08-19T01:04:32;18.50;;;13.30;;
22907;SDS011;11620;50.050;8.690;2022-08-19T01:07:18;15.45;;;12.93;;
22907;SDS011;11620;50.050;8.690;2022-08-19T01:10:05;17.23;;;12.82;;
22907;SDS011;11620;50.050;8.690;2022-08-19T01:12:54;13.52;;;12.07;;
22907;SDS011;11620;50.050;8.690;2022-08-19T01:15:46;14.55;;;12.27;;
22907;SDS011;11620;50.050;8.690;2022-08-19T01:18:38;13.98;;;12.52;;
22907;SDS011;11620;50.050;8.690;2022-08-19T01:21:31;15.07;;;12.25;;
22907;SDS011;11620;50.050;8.690;2022-08-19T01:24:31;13.85;;;12.00;;
22907;SDS011;11620;50.050;8.690;2022-08-19T01:27:18;16.73;;;12.98;;
22907;SDS011;11620;50.050;8.690;2022-08-19T01:30:04;14.88;;;12.82;;
22907;SDS011;11620;50.050;8.690;2022-08-19T01:32:52;15.35;;;12.27;;
22907;SDS011;11620;50.050;8.690;2022-08-19T01:35:40;13.60;;;12.25;;
22907;SDS011;11620;50.050;8.690;2022-08-19T01:38:27;14.05;;;11.45;;
22907;SDS011;11620;50.050;8.690;2022-08-19T01:41:16;15.93;;;11.80;;
22907;SDS011;11620;50.050;8.690;2022-08-19T01:44:03;15.70;;;11.40;;
22907;SDS011;11620;50.050;8.690;2022-08-19T01:46:51;15.63;;;11.75;;
22907;SDS011;11620;50.050;8.690;2022-08-19T01:49:38;14.18;;;11.18;;
22907;SDS011;11620;50.050;8.690;2022-08-19T01:52:24;14.65;;;11.50;;
22907;SDS011;11620;50.050;8.690;2022-08-19T01:55:11;12.32;;;10.30;;
22907;SDS011;11620;50.050;8.690;2022-08-19T01:58:03;13.07;;;11.50;;
22907;SDS011;11620;50.050;8.690;2022-08-19T02:00:51;14.63;;;10.95;;
22907;SDS011;11620;50.050;8.690;2022-08-19T02:03:37;13.88;;;10.65;;
22907;SDS011;11620;50.050;8.690;2022-08-19T02:06:24;14.70;;;10.75;;
22907;SDS011;11620;50.050;8.690;2022-08-19T02:09:10;13.07;;;10.45;;
22907;SDS011;11620;50.050;8.690;2022-08-19T02:11:57;12.95;;;10.85;;
22907;SDS011;11620;50.050;8.690;2022-08-19T02:14:43;12.88;;;10.40;;
22907;SDS011;11620;50.050;8.690;2022-08-19T02:17:29;13.85;;;10.57;;
22907;SDS011;11620;50.050;8.690;2022-08-19T02:20:16;13.02;;;10.05;;
22907;SDS011;11620;50.050;8.690;2022-08-19T02:23:03;12.07;;;10.75;;
22907;SDS011;11620;50.050;8.690;2022-08-19T02:25:51;12.40;;;10.65;;
22907;SDS011;11620;50.050;8.690;2022-08-19T02:28:37;13.52;;;10.20;;
22907;SDS011;11620;50.050;8.690;2022-08-19T02:31:24;11.38;;;10.20;;
22907;SDS011;11620;50.050;8.690;2022-08-19T02:34:11;14.10;;;10.02;;
22907;SDS011;11620;50.050;8.690;2022-08-19T02:36:57;13.68;;;9.77;;
22907;SDS011;11620;50.050;8.690;2022-08-19T02:39:44;11.45;;;10.25;;
22907;SDS011;11620;50.050;8.690;2022-08-19T02:42:30;11.85;;;10.32;;
22907;SDS011;11620;50.050;8.690;2022-08-19T02:45:17;11.80;;;10.23;;
22907;SDS011;11620;50.050;8.690;2022-08-19T02:48:04;13.25;;;10.70;;
22907;SDS011;11620;50.050;8.690;2022-08-19T02:50:51;11.43;;;9.82;;
22907;SDS011;11620;50.050;8.690;2022-08-19T02:53:40;12.40;;;10.18;;
22907;SDS011;11620;50.050;8.690;2022-08-19T02:56:26;13.80;;;10.40;;
22907;SDS011;11620;50.050;8.690;2022-08-19T02:59:13;11.85;;;9.65;;
22907;SDS011;11620;50.050;8.690;2022-08-19T03:01:59;13.20;;;10.48;;
22907;SDS011;11620;50.050;8.690;2022-08-19T03:04:46;11.88;;;9.55;;
22907;SDS011;11620;50.050;8.690;2022-08-19T03:07:32;14.20;;;10.45;;
22907;SDS011;11620;50.050;8.690;2022-08-19T03:10:18;15.13;;;10.27;;
22907;SDS011;11620;50.050;8.690;2022-08-19T03:13:05;11.80;;;9.13;;
22907;SDS011;11620;50.050;8.690;2022-08-19T03:15:52;12.65;;;10.15;;
22907;SDS011;11620;50.050;8.690;2022-08-19T03:18:38;12.60;;;10.40;;
22907;SDS011;11620;50.050;8.690;2022-08-19T03:21:25;11.52;;;9.52;;
22907;SDS011;11620;50.050;8.690;2022-08-19T03:24:14;13.20;;;9.93;;
22907;SDS011;11620;50.050;8.690;2022-08-19T03:27:02;13.32;;;10.52;;
22907;SDS011;11620;50.050;8.690;2022-08-19T03:29:50;11.18;;;9.98;;
22907;SDS011;11620;50.050;8.690;2022-08-19T03:32:37;13.80;;;9.95;;
22907;SDS011;11620;50.050;8.690;2022-08-19T03:35:23;12.80;;;10.45;;
22907;SDS011;11620;50.050;8.690;2022-08-19T03:38:09;11.23;;;10.05;;
22907;SDS011;11620;50.050;8.690;2022-08-19T03:40:56;11.57;;;9.43;;
22907;SDS011;11620;50.050;8.690;2022-08-19T03:43:42;13.48;;;9.68;;
22907;SDS011;11620;50.050;8.690;2022-08-19T03:46:32;11.23;;;9.80;;
22907;SDS011;11620;50.050;8.690;2022-08-19T03:49:19;13.23;;;9.57;;
22907;SDS011;11620;50.050;8.690;2022-08-19T03:52:07;12.82;;;9.70;;
22907;SDS011;11620;50.050;8.690;2022-08-19T03:54:53;13.00;;;11.00;;
22907;SDS011;11620;50.050;8.690;2022-08-19T03:57:40;13.10;;;10.05;;
22907;SDS011;11620;50.050;8.690;2022-08-19T04:00:26;12.52;;;9.95;;
22907;SDS011;11620;50.050;8.690;2022-08-19T04:03:12;10.40;;;9.10;;
22907;SDS011;11620;50.050;8.690;2022-08-19T04:05:59;12.25;;;8.82;;
22907;SDS011;11620;50.050;8.690;2022-08-19T04:08:54;10.63;;;9.15;;
22907;SDS011;11620;50.050;8.690;2022-08-19T04:11:47;12.25;;;9.25;;
22907;SDS011;11620;50.050;8.690;2022-08-19T04:14:35;10.55;;;9.13;;
22907;SDS011;11620;50.050;8.690;2022-08-19T04:17:22;9.75;;;8.70;;
22907;SDS011;11620;50.050;8.690;2022-08-19T04:20:08;13.57;;;9.40;;
22907;SDS011;11620;50.050;8.690;2022-08-19T04:22:56;11.40;;;9.32;;
22907;SDS011;11620;50.050;8.690;2022-08-19T04:25:43;14.45;;;12.32;;
22907;SDS011;11620;50.050;8.690;2022-08-19T04:28:29;11.35;;;10.20;;
22907;SDS011;11620;50.050;8.690;2022-08-19T04:31:17;12.23;;;9.68;;
22907;SDS011;11620;50.050;8.690;2022-08-19T04:34:07;18.08;;;9.20;;
22907;SDS011;11620;50.050;8.690;2022-08-19T04:36:57;11.52;;;8.80;;
22907;SDS011;11620;50.050;8.690;2022-08-19T04:39:44;12.60;;;9.43;;
22907;SDS011;11620;50.050;8.690;2022-08-19T04:42:49;11.70;;;8.95;;
22907;SDS011;11620;50.050;8.690;2022-08-19T04:45:36;13.00;;;9.05;;
22907;SDS011;11620;50.050;8.690;2022-08-19T04:48:22;11.25;;;9.43;;
22907;SDS011;11620;50.050;8.690;2022-08-19T04:51:12;13.07;;;9.88;;
22907;SDS011;11620;50.050;8.690;2022-08-19T04:53:59;10.15;;;8.85;;
22907;SDS011;11620;50.050;8.690;2022-08-19T04:56:45;10.43;;;9.23;;
22907;SDS011;11620;50.050;8.690;2022-08-19T04:59:30;9.88;;;8.60;;
22907;SDS011;11620;50.050;8.690;2022-08-19T05:02:16;12.27;;;9.10;;
22907;SDS011;11620;50.050;8.690;2022-08-19T05:05:00;13.75;;;8.80;;
22907;SDS011;11620;50.050;8.690;2022-08-19T05:07:45;14.13;;;8.68;;
22907;SDS011;11620;50.050;8.690;2022-08-19T05:10:29;11.80;;;9.13;;
22907;SDS011;11620;50.050;8.690;2022-08-19T05:13:15;9.40;;;8.35;;
22907;SDS011;11620;50.050;8.690;2022-08-19T05:16:00;10.48;;;9.07;;
22907;SDS011;11620;50.050;8.690;2022-08-19T05:18:45;15.90;;;9.95;;
22907;SDS011;11620;50.050;8.690;2022-08-19T05:21:48;12.18;;;8.55;;
22907;SDS011;11620;50.050;8.690;2022-08-19T05:24:52;12.38;;;9.38;;
22907;SDS011;11620;50.050;8.690;2022-08-19T05:27:36;10.65;;;8.68;;
22907;SDS011;11620;50.050;8.690;2022-08-19T05:30:21;11.02;;;8.82;;
22907;SDS011;11620;50.050;8.690;2022-08-19T05:33:06;11.52;;;8.70;;
22907;SDS011;11620;50.050;8.690;2022-08-19T05:35:53;13.10;;;8.43;;
22907;SDS011;11620;50.050;8.690;2022-08-19T05:38:40;10.73;;;8.15;;
22907;SDS011;11620;50.050;8.690;2022-08-19T05:41:24;9.95;;;8.45;;
22907;SDS011;11620;50.050;8.690;2022-08-19T05:44:13;10.10;;;7.38;;
22907;SDS011;11620;50.050;8.690;2022-08-19T05:47:00;10.20;;;8.45;;
22907;SDS011;11620;50.050;8.690;2022-08-19T05:49:47;10.95;;;8.02;;
22907;SDS011;11620;50.050;8.690;2022-08-19T05:52:33;10.68;;;8.07;;
22907;SDS011;11620;50.050;8.690;2022-08-19T05:55:21;9.60;;;7.72;;
22907;SDS011;11620;50.050;8.690;2022-08-19T05:58:07;10.55;;;8.20;;
22907;SDS011;11620;50.050;8.690;2022-08-19T06:00:52;10.38;;;8.43;;
22907;SDS011;11620;50.050;8.690;2022-08-19T06:03:38;8.70;;;7.45;;
22907;SDS011;11620;50.050;8.690;2022-08-19T06:06:23;11.50;;;7.28;;
22907;SDS011;11620;50.050;8.690;2022-08-19T06:09:08;12.15;;;8.43;;
22907;SDS011;11620;50.050;8.690;2022-08-19T06:11:55;13.02;;;10.38;;
22907;SDS011;11620;50.050;8.690;2022-08-19T06:14:42;9.70;;;7.20;;
22907;SDS011;11620;50.050;8.690;2022-08-19T06:17:30;10.85;;;7.35;;
22907;SDS011;11620;50.050;8.690;2022-08-19T06:20:15;8.30;;;7.40;;
22907;SDS011;11620;50.050;8.690;2022-08-19T06:23:01;10.32;;;7.78;;
22907;SDS011;11620;50.050;8.690;2022-08-19T06:25:46;10.82;;;7.63;;
22907;SDS011;11620;50.050;8.690;2022-08-19T06:28:31;7.75;;;6.30;;
22907;SDS011;11620;50.050;8.690;2022-08-19T06:31:20;9.00;;;6.97;;
22907;SDS011;11620;50.050;8.690;2022-08-19T06:34:07;9.82;;;7.93;;
22907;SDS011;11620;50.050;8.690;2022-08-19T06:36:52;11.35;;;6.75;;
22907;SDS011;11620;50.050;8.690;2022-08-19T06:39:38;8.95;;;6.55;;
22907;SDS011;11620;50.050;8.690;2022-08-19T06:42:24;10.65;;;6.50;;
22907;SDS011;11620;50.050;8.690;2022-08-19T06:45:08;13.32;;;9.13;;
22907;SDS011;11620;50.050;8.690;2022-08-19T06:47:54;8.77;;;7.00;;
22907;SDS011;11620;50.050;8.690;2022-08-19T06:50:39;13.38;;;7.78;;
22907;SDS011;11620;50.050;8.690;2022-08-19T06:53:24;6.95;;;5.95;;
22907;SDS011;11620;50.050;8.690;2022-08-19T06:56:09;9.80;;;6.32;;
22907;SDS011;11620;50.050;8.690;2022-08-19T06:58:53;6.35;;;5.75;;
22907;SDS011;11620;50.050;8.690;2022-08-19T07:01:44;7.22;;;5.38;;
22907;SDS011;11620;50.050;8.690;2022-08-19T07:04:35;7.40;;;6.53;;
22907;SDS011;11620;50.050;8.690;2022-08-19T07:07:21;6.55;;;5.40;;
22907;SDS011;11620;50.050;8.690;2022-08-19T07:10:06;7.05;;;5.53;;
22907;SDS011;11620;50.050;8.690;2022-08-19T07:12:51;12.15;;;9.77;;
22907;SDS011;11620;50.050;8.690;2022-08-19T07:15:35;7.57;;;5.40;;
22907;SDS011;11620;50.050;8.690;2022-08-19T07:18:21;10.88;;;6.80;;
22907;SDS011;11620;50.050;8.690;2022-08-19T07:21:08;9.18;;;5.53;;
22907;SDS011;11620;50.050;8.690;2022-08-19T07:24:13;6.30;;;4.75;;
22907;SDS011;11620;50.050;8.690;2022-08-19T07:27:00;7.97;;;5.40;;
22907;SDS011;11620;50.050;8.690;2022-08-19T07:29:46;4.97;;;4.47;;
22907;SDS011;11620;50.050;8.690;2022-08-19T07:32:31;9.50;;;5.03;;
22907;SDS011;11620;50.050;8.690;2022-08-19T07:35:16;6.72;;;4.60;;
22907;SDS011;11620;50.050;8.690;2022-08-19T07:38:03;5.13;;;4.68;;
22907;SDS011;11620;50.050;8.690;2022-08-19T07:40:47;6.70;;;4.55;;
22907;SDS011;11620;50.050;8.690;2022-08-19T07:43:32;4.78;;;4.20;;
22907;SDS011;11620;50.050;8.690;2022-08-19T07:46:17;5.43;;;4.50;;
22907;SDS011;11620;50.050;8.690;2022-08-19T07:49:05;6.15;;;4.38;;
22907;SDS011;11620;50.050;8.690;2022-08-19T07:51:52;6.65;;;4.20;;
22907;SDS011;11620;50.050;8.690;2022-08-19T07:54:39;8.35;;;4.22;;
22907;SDS011;11620;50.050;8.690;2022-08-19T07:57:25;5.13;;;4.47;;
22907;SDS011;11620;50.050;8.690;2022-08-19T08:00:09;5.80;;;4.35;;
22907;SDS011;11620;50.050;8.690;2022-08-19T08:02:54;5.65;;;4.50;;
22907;SDS011;11620;50.050;8.690;2022-08-19T08:05:39;5.10;;;4.60;;
22907;SDS011;11620;50.050;8.690;2022-08-19T08:08:43;11.15;;;9.50;;
22907;SDS011;11620;50.050;8.690;2022-08-19T08:12:07;6.03;;;4.68;;
22907;SDS011;11620;50.050;8.690;2022-08-19T08:15:02;6.80;;;4.47;;
22907;SDS011;11620;50.050;8.690;2022-08-19T08:17:50;7.60;;;4.30;;
22907;SDS011;11620;50.050;8.690;2022-08-19T08:20:34;5.90;;;3.92;;
22907;SDS011;11620;50.050;8.690;2022-08-19T08:23:19;4.47;;;4.05;;
22907;SDS011;11620;50.050;8.690;2022-08-19T08:26:06;5.32;;;4.15;;
22907;SDS011;11620;50.050;8.690;2022-08-19T08:28:51;4.70;;;4.30;;
22907;SDS011;11620;50.050;8.690;2022-08-19T08:31:36;6.57;;;4.35;;
22907;SDS011;11620;50.050;8.690;2022-08-19T08:34:21;5.65;;;4.25;;
22907;SDS011;11620;50.050;8.690;2022-08-19T08:37:06;4.60;;;4.18;;
22907;SDS011;11620;50.050;8.690;2022-08-19T08:39:50;7.60;;;4.53;;
22907;SDS011;11620;50.050;8.690;2022-08-19T08:42:35;6.40;;;4.82;;
22907;SDS011;11620;50.050;8.690;2022-08-19T08:45:28;7.57;;;4.30;;
22907;SDS011;11620;50.050;8.690;2022-08-19T08:49:02;6.00;;;4.75;;
22907;SDS011;11620;50.050;8.690;2022-08-19T08:51:36;6.05;;;4.35;;
22907;SDS011;11620;50.050;8.690;2022-08-19T08:54:28;6.97;;;3.88;;
22907;SDS011;11620;50.050;8.690;2022-08-19T08:57:24;14.57;;;11.05;;
22907;SDS011;11620;50.050;8.690;2022-08-19T09:00:18;14.52;;;12.27;;
22907;SDS011;11620;50.050;8.690;2022-08-19T09:03:19;6.18;;;4.20;;
22907;SDS011;11620;50.050;8.690;2022-08-19T09:09:20;4.20;;;3.65;;
22907;SDS011;11620;50.050;8.690;2022-08-19T09:15:15;4.50;;;4.10;;
22907;SDS011;11620;50.050;8.690;2022-08-19T09:18:06;5.18;;;3.95;;
22907;SDS011;11620;50.050;8.690;2022-08-19T09:20:53;14.93;;;5.05;;
22907;SDS011;11620;50.050;8.690;2022-08-19T09:23:37;9.05;;;4.25;;
22907;SDS011;11620;50.050;8.690;2022-08-19T09:26:22;6.82;;;4.50;;
22907;SDS011;11620;50.050;8.690;2022-08-19T09:29:07;4.90;;;3.75;;
22907;SDS011;11620;50.050;8.690;2022-08-19T09:31:52;4.63;;;4.18;;
22907;SDS011;11620;50.050;8.690;2022-08-19T09:34:38;9.40;;;4.65;;
22907;SDS011;11620;50.050;8.690;2022-08-19T09:37:22;8.52;;;4.25;;
22907;SDS011;11620;50.050;8.690;2022-08-19T09:40:07;9.93;;;3.75;;
22907;SDS011;11620;50.050;8.690;2022-08-19T09:42:53;4.18;;;3.78;;
22907;SDS011;11620;50.050;8.690;2022-08-19T09:45:38;4.97;;;3.92;;
22907;SDS011;11620;50.050;8.690;2022-08-19T09:48:23;5.75;;;4.13;;
22907;SDS011;11620;50.050;8.690;2022-08-19T09:51:08;6.55;;;4.50;;
22907;SDS011;11620;50.050;8.690;2022-08-19T09:53:58;8.38;;;4.10;;
22907;SDS011;11620;50.050;8.690;2022-08-19T09:56:44;4.75;;;4.20;;
22907;SDS011;11620;50.050;8.690;2022-08-19T09:59:28;16.77;;;3.90;;
22907;SDS011;11620;50.050;8.690;2022-08-19T10:02:13;5.68;;;4.75;;
22907;SDS011;11620;50.050;8.690;2022-08-19T10:04:57;5.72;;;3.97;;
22907;SDS011;11620;50.050;8.690;2022-08-19T10:08:01;8.07;;;4.53;;
22907;SDS011;11620;50.050;8.690;2022-08-19T10:10:47;7.28;;;4.20;;
22907;SDS011;11620;50.050;8.690;2022-08-19T10:13:32;6.78;;;4.30;;
22907;SDS011;11620;50.050;8.690;2022-08-19T10:16:19;31.27;;;6.50;;
22907;SDS011;11620;50.050;8.690;2022-08-19T10:19:06;6.28;;;3.95;;
22907;SDS011;11620;50.050;8.690;2022-08-19T10:21:50;6.10;;;4.63;;
22907;SDS011;11620;50.050;8.690;2022-08-19T10:24:35;6.78;;;4.60;;
22907;SDS011;11620;50.050;8.690;2022-08-19T10:27:19;6.47;;;4.32;;
22907;SDS011;11620;50.050;8.690;2022-08-19T10:30:05;6.75;;;4.13;;
22907;SDS011;11620;50.050;8.690;2022-08-19T10:32:50;8.52;;;4.45;;
22907;SDS011;11620;50.050;8.690;2022-08-19T10:35:34;6.10;;;5.07;;
22907;SDS011;11620;50.050;8.690;2022-08-19T10:38:20;5.72;;;4.88;;
22907;SDS011;11620;50.050;8.690;2022-08-19T10:41:24;5.22;;;4.72;;
22907;SDS011;11620;50.050;8.690;2022-08-19T10:44:12;6.50;;;5.22;;
22907;SDS011;11620;50.050;8.690;2022-08-19T10:46:56;6.95;;;5.00;;
22907;SDS011;11620;50.050;8.690;2022-08-19T10:49:42;5.30;;;4.75;;
22907;SDS011;11620;50.050;8.690;2022-08-19T10:52:47;22.27;;;6.18;;
22907;SDS011;11620;50.050;8.690;2022-08-19T10:55:32;10.07;;;6.32;;
22907;SDS011;11620;50.050;8.690;2022-08-19T10:58:36;7.28;;;5.05;;
22907;SDS011;11620;50.050;8.690;2022-08-19T11:01:20;6.10;;;4.75;;
22907;SDS011;11620;50.050;8.690;2022-08-19T11:04:05;10.63;;;5.85;;
22907;SDS011;11620;50.050;8.690;2022-08-19T11:06:53;6.03;;;5.47;;
22907;SDS011;11620;50.050;8.690;2022-08-19T11:09:39;6.88;;;6.05;;
22907;SDS011;11620;50.050;8.690;2022-08-19T11:12:25;8.07;;;6.03;;
22907;SDS011;11620;50.050;8.690;2022-08-19T11:15:11;6.78;;;6.07;;
22907;SDS011;11620;50.050;8.690;2022-08-19T11:17:55;6.53;;;5.93;;
22907;SDS011;11620;50.050;8.690;2022-08-19T11:20:40;7.50;;;6.30;;
22907;SDS011;11620;50.050;8.690;2022-08-19T11:23:25;7.63;;;6.55;;
22907;SDS011;11620;50.050;8.690;2022-08-19T11:26:09;8.25;;;6.82;;
22907;SDS011;11620;50.050;8.690;2022-08-19T11:28:54;8.73;;;7.07;;
22907;SDS011;11620;50.050;8.690;2022-08-19T11:31:41;7.38;;;6.72;;
22907;SDS011;11620;50.050;8.690;2022-08-19T11:34:28;7.60;;;6.95;;
22907;SDS011;11620;50.050;8.690;2022-08-19T11:37:13;7.70;;;6.90;;
22907;SDS011;11620;50.050;8.690;2022-08-19T11:39:57;8.45;;;7.60;;
22907;SDS011;11620;50.050;8.690;2022-08-19T11:42:42;8.80;;;7.25;;
22907;SDS011;11620;50.050;8.690;2022-08-19T11:45:39;8.10;;;7.32;;
22907;SDS011;11620;50.050;8.690;2022-08-19T11:48:24;9.20;;;7.75;;
22907;SDS011;11620;50.050;8.690;2022-08-19T11:51:14;8.88;;;8.07;;
22907;SDS011;11620;50.050;8.690;2022-08-19T11:54:03;9.50;;;7.78;;
22907;SDS011;11620;50.050;8.690;2022-08-19T11:56:49;8.10;;;7.30;;
22907;SDS011;11620;50.050;8.690;2022-08-19T11:59:33;11.18;;;9.25;;
22907;SDS011;11620;50.050;8.690;2022-08-19T12:02:18;9.95;;;7.68;;
22907;SDS011;11620;50.050;8.690;2022-08-19T12:05:03;9.43;;;8.32;;
22907;SDS011;11620;50.050;8.690;2022-08-19T12:07:47;11.07;;;8.50;;
22907;SDS011;11620;50.050;8.690;2022-08-19T12:10:32;9.45;;;8.10;;
22907;SDS011;11620;50.050;8.690;2022-08-19T12:13:18;9.15;;;8.25;;
22907;SDS011;11620;50.050;8.690;2022-08-19T12:16:09;7.72;;;7.03;;
22907;SDS011;11620;50.050;8.690;2022-08-19T12:18:56;11.05;;;7.72;;
22907;SDS011;11620;50.050;8.690;2022-08-19T12:21:42;8.90;;;8.00;;
22907;SDS011;11620;50.050;8.690;2022-08-19T12:24:26;9.00;;;8.23;;
22907;SDS011;11620;50.050;8.690;2022-08-19T12:27:11;8.65;;;7.82;;
22907;SDS011;11620;50.050;8.690;2022-08-19T12:29:56;8.10;;;7.40;;
22907;SDS011;11620;50.050;8.690;2022-08-19T12:32:41;7.88;;;7.18;;
22907;SDS011;11620;50.050;8.690;2022-08-19T12:35:25;7.47;;;6.85;;
22907;SDS011;11620;50.050;8.690;2022-08-19T12:38:10;7.47;;;6.85;;
22907;SDS011;11620;50.050;8.690;2022-08-19T12:40:55;8.05;;;7.28;;
22907;SDS011;11620;50.050;8.690;2022-08-19T12:43:39;7.95;;;7.05;;
22907;SDS011;11620;50.050;8.690;2022-08-19T12:46:25;7.68;;;6.97;;
22907;SDS011;11620;50.050;8.690;2022-08-19T12:49:10;8.07;;;7.28;;
22907;SDS011;11620;50.050;8.690;2022-08-19T12:51:54;7.80;;;7.03;;
22907;SDS011;11620;50.050;8.690;2022-08-19T12:54:39;7.70;;;7.00;;
22907;SDS011;11620;50.050;8.690;2022-08-19T12:57:24;7.45;;;6.75;;
22907;SDS011;11620;50.050;8.690;2022-08-19T13:00:13;8.30;;;6.50;;
22907;SDS011;11620;50.050;8.690;2022-08-19T13:03:04;8.02;;;7.15;;
22907;SDS011;11620;50.050;8.690;2022-08-19T13:05:50;7.60;;;6.55;;
22907;SDS011;11620;50.050;8.690;2022-08-19T13:08:35;8.90;;;8.00;;
22907;SDS011;11620;50.050;8.690;2022-08-19T13:11:20;7.70;;;7.00;;
22907;SDS011;11620;50.050;8.690;2022-08-19T13:14:08;9.50;;;7.15;;
22907;SDS011;11620;50.050;8.690;2022-08-19T13:16:53;11.50;;;7.20;;
22907;SDS011;11620;50.050;8.690;2022-08-19T13:19:38;8.50;;;7.60;;
22907;SDS011;11620;50.050;8.690;2022-08-19T13:22:23;9.10;;;5.93;;
22907;SDS011;11620;50.050;8.690;2022-08-19T13:25:08;9.05;;;6.22;;
22907;SDS011;11620;50.050;8.690;2022-08-19T13:27:54;7.13;;;6.43;;
22907;SDS011;11620;50.050;8.690;2022-08-19T13:30:39;9.32;;;6.53;;
22907;SDS011;11620;50.050;8.690;2022-08-19T13:33:42;6.93;;;6.22;;
22907;SDS011;11620;50.050;8.690;2022-08-19T13:36:27;8.48;;;6.13;;
22907;SDS011;11620;50.050;8.690;2022-08-19T13:39:11;5.90;;;5.22;;
22907;SDS011;11620;50.050;8.690;2022-08-19T13:41:56;6.97;;;5.63;;
22907;SDS011;11620;50.050;8.690;2022-08-19T13:44:41;7.25;;;5.60;;
22907;SDS011;11620;50.050;8.690;2022-08-19T13:47:26;9.60;;;5.72;;
22907;SDS011;11620;50.050;8.690;2022-08-19T13:50:11;5.78;;;5.22;;
22907;SDS011;11620;50.050;8.690;2022-08-19T13:52:56;5.15;;;4.30;;
22907;SDS011;11620;50.050;8.690;2022-08-19T13:55:41;6.43;;;5.80;;
22907;SDS011;11620;50.050;8.690;2022-08-19T13:58:26;5.20;;;4.70;;
22907;SDS011;11620;50.050;8.690;2022-08-19T14:01:11;5.45;;;4.47;;
22907;SDS011;11620;50.050;8.690;2022-08-19T14:03:56;5.40;;;4.80;;
22907;SDS011;11620;50.050;8.690;2022-08-19T14:06:40;7.82;;;4.55;;
22907;SDS011;11620;50.050;8.690;2022-08-19T14:09:25;6.00;;;4.68;;
22907;SDS011;11620;50.050;8.690;2022-08-19T14:12:09;4.90;;;4.50;;
22907;SDS011;11620;50.050;8.690;2022-08-19T14:14:55;5.25;;;4.20;;
22907;SDS011;11620;50.050;8.690;2022-08-19T14:17:43;5.38;;;4.10;;
22907;SDS011;11620;50.050;8.690;2022-08-19T14:20:35;4.68;;;3.70;;
22907;SDS011;11620;50.050;8.690;2022-08-19T14:23:21;5.47;;;3.78;;
22907;SDS011;11620;50.050;8.690;2022-08-19T14:26:12;3.97;;;3.50;;
22907;SDS011;11620;50.050;8.690;2022-08-19T14:29:00;4.85;;;3.50;;
22907;SDS011;11620;50.050;8.690;2022-08-19T14:31:47;4.15;;;3.75;;
22907;SDS011;11620;50.050;8.690;2022-08-19T14:34:34;4.32;;;3.58;;
22907;SDS011;11620;50.050;8.690;2022-08-19T14:37:23;3.90;;;3.40;;
22907;SDS011;11620;50.050;8.690;2022-08-19T14:40:14;3.97;;;3.20;;
22907;SDS011;11620;50.050;8.690;2022-08-19T14:43:02;4.38;;;3.28;;
22907;SDS011;11620;50.050;8.690;2022-08-19T14:45:50;4.43;;;3.33;;
22907;SDS011;11620;50.050;8.690;2022-08-19T14:48:36;4.78;;;3.22;;
22907;SDS011;11620;50.050;8.690;2022-08-19T14:51:24;7.90;;;3.40;;
22907;SDS011;11620;50.050;8.690;2022-08-19T14:54:13;6.38;;;3.45;;
22907;SDS011;11620;50.050;8.690;2022-08-19T14:56:59;6.03;;;3.25;;
22907;SDS011;11620;50.050;8.690;2022-08-19T14:59:46;3.78;;;3.00;;
22907;SDS011;11620;50.050;8.690;2022-08-19T15:02:32;4.80;;;3.63;;
22907;SDS011;11620;50.050;8.690;2022-08-19T15:05:18;3.08;;;2.88;;
22907;SDS011;11620;50.050;8.690;2022-08-19T15:08:05;4.28;;;3.22;;
22907;SDS011;11620;50.050;8.690;2022-08-19T15:10:52;5.80;;;3.75;;
22907;SDS011;11620;50.050;8.690;2022-08-19T15:13:38;3.60;;;3.30;;
22907;SDS011;11620;50.050;8.690;2022-08-19T15:16:25;3.40;;;3.15;;
22907;SDS011;11620;50.050;8.690;2022-08-19T15:19:12;5.13;;;3.20;;
22907;SDS011;11620;50.050;8.690;2022-08-19T15:21:59;3.55;;;3.25;;
22907;SDS011;11620;50.050;8.690;2022-08-19T15:24:45;6.07;;;3.40;;
22907;SDS011;11620;50.050;8.690;2022-08-19T15:27:32;3.40;;;3.15;;
22907;SDS011;11620;50.050;8.690;2022-08-19T15:30:20;3.72;;;3.38;;
22907;SDS011;11620;50.050;8.690;2022-08-19T15:33:09;3.47;;;3.17;;
22907;SDS011;11620;50.050;8.690;2022-08-19T15:35:59;3.45;;;3.15;;
22907;SDS011;11620;50.050;8.690;2022-08-19T15:38:46;4.00;;;3.17;;
22907;SDS011;11620;50.050;8.690;2022-08-19T15:41:32;3.38;;;3.08;;
22907;SDS011;11620;50.050;8.690;2022-08-19T15:44:19;6.75;;;3.35;;
22907;SDS011;11620;50.050;8.690;2022-08-19T15:47:06;4.07;;;3.55;;
22907;SDS011;11620;50.050;8.690;2022-08-19T15:49:53;3.70;;;3.25;;
22907;SDS011;11620;50.050;8.690;2022-08-19T15:52:51;4.78;;;3.63;;
22907;SDS011;11620;50.050;8.690;2022-08-19T15:55:43;6.05;;;3.45;;
22907;SDS011;11620;50.050;8.690;2022-08-19T15:58:30;5.70;;;3.97;;
22907;SDS011;11620;50.050;8.690;2022-08-19T16:01:36;5.97;;;3.45;;
22907;SDS011;11620;50.050;8.690;2022-08-19T16:04:41;4.05;;;3.20;;
22907;SDS011;11620;50.050;8.690;2022-08-19T16:07:45;4.13;;;3.17;;
22907;SDS011;11620;50.050;8.690;2022-08-19T16:10:32;3.80;;;3.15;;
22907;SDS011;11620;50.050;8.690;2022-08-19T16:13:22;6.68;;;3.60;;
22907;SDS011;11620;50.050;8.690;2022-08-19T16:16:09;3.63;;;3.33;;
22907;SDS011;11620;50.050;8.690;2022-08-19T16:18:55;3.25;;;2.97;;
22907;SDS011;11620;50.050;8.690;2022-08-19T16:21:43;3.72;;;3.42;;
22907;SDS011;11620;50.050;8.690;2022-08-19T16:24:37;3.50;;;3.13;;
22907;SDS011;11620;50.050;8.690;2022-08-19T16:27:23;3.80;;;3.50;;
22907;SDS011;11620;50.050;8.690;2022-08-19T16:30:10;4.82;;;3.70;;
22907;SDS011;11620;50.050;8.690;2022-08-19T16:32:56;6.38;;;3.88;;
22907;SDS011;11620;50.050;8.690;2022-08-19T16:35:43;4.43;;;3.88;;
22907;SDS011;11620;50.050;8.690;2022-08-19T16:38:29;7.22;;;4.00;;
22907;SDS011;11620;50.050;8.690;2022-08-19T16:41:15;6.63;;;5.55;;
22907;SDS011;11620;50.050;8.690;2022-08-19T16:44:03;5.50;;;4.60;;